Time;durP1;ratioP1;P1;durP2;ratioP2;P2;SDS_P1;SDS_P2;PMS_P1;PMS_P2;Temp;Humidity;BMP_temperature;BMP_pressure;BME280_temperature;BME280_humidity;BME280_pressure;Samples;Min_cycle;Max_cycle;Signal;HPM_P1;HPM_P2
2022/02/18 00:01:01;;;;;;;2.60;1.40;;;;;;;3.39;79.18;96678.91;105100;1271;62713;-22
2022/02/18 00:03:29;;;;;;;1.80;1.00;;;;;;;3.55;78.32;96677.68;105263;1271;61038;-22
2022/02/18 00:05:57;;;;;;;2.00;1.10;;;;;;;3.52;78.52;96690.13;105315;1271;75730;-22
2022/02/18 00:08:25;;;;;;;2.40;1.20;;;;;;;3.46;78.80;96695.14;105125;1271;75724;-22
2022/02/18 00:10:53;;;;;;;2.30;1.30;;;;;;;3.11;80.29;96709.91;105130;1271;74210;-22
2022/02/18 00:13:20;;;;;;;1.90;1.00;;;;;;;2.91;80.70;96694.16;105267;1271;61911;-22
2022/02/18 00:15:47;;;;;;;2.10;1.20;;;;;;;3.04;80.21;96710.64;105386;1271;61035;-22
2022/02/18 00:18:14;;;;;;;2.60;1.10;;;;;;;3.16;80.19;96740.33;105336;1271;75299;-22
2022/02/18 00:20:41;;;;;;;1.70;1.20;;;;;;;2.92;80.75;96744.82;105399;1271;75892;-22
2022/02/18 00:23:10;;;;;;;1.50;0.90;;;;;;;2.76;80.66;96744.60;105373;1271;74335;-22
2022/02/18 00:25:40;;;;;;;1.20;0.80;;;;;;;2.85;80.66;96769.02;105399;1270;62716;-22
2022/02/18 00:28:07;;;;;;;1.10;0.80;;;;;;;3.10;80.00;96781.33;105397;1271;62185;-22
2022/02/18 00:30:34;;;;;;;1.80;1.00;;;;;;;3.28;79.09;96790.73;105420;1269;75259;-24
2022/02/18 00:33:01;;;;;;;4.50;1.70;;;;;;;3.17;79.45;96789.08;105347;1271;76182;-24
2022/02/18 00:35:28;;;;;;;1.40;0.90;;;;;;;2.94;80.64;96792.99;105104;1271;74438;-23
2022/02/18 00:37:55;;;;;;;1.70;0.90;;;;;;;2.86;81.27;96798.26;105341;1270;61870;-24
2022/02/18 00:40:25;;;;;;;2.20;1.30;;;;;;;3.23;79.71;96800.23;105362;1271;62329;-24
2022/02/18 00:42:52;;;;;;;2.20;1.50;;;;;;;3.48;78.70;96815.44;105016;1270;75418;-23
2022/02/18 00:45:18;;;;;;;1.40;1.00;;;;;;;3.28;79.34;96812.14;104966;1271;75855;-24
2022/02/18 00:47:47;;;;;;;3.90;1.10;;;;;;;3.08;80.05;96814.59;105171;1271;74385;-23
2022/02/18 00:50:14;;;;;;;1.80;1.00;;;;;;;2.91;80.76;96820.10;105350;1271;61160;-22
2022/02/18 00:52:42;;;;;;;1.50;0.90;;;;;;;3.10;80.48;96835.79;105373;1271;62378;-23
2022/02/18 00:55:09;;;;;;;1.50;1.10;;;;;;;3.45;78.97;96837.30;105214;1271;75500;-22
2022/02/18 00:57:37;;;;;;;1.90;1.00;;;;;;;3.34;79.03;96837.36;105362;1271;76181;-22
2022/02/18 01:00:06;;;;;;;1.40;0.70;;;;;;;3.19;79.57;96843.05;104986;1271;74640;-23
2022/02/18 01:02:33;;;;;;;2.20;1.30;;;;;;;3.12;79.81;96847.94;104857;1271;61124;-23
2022/02/18 01:05:04;;;;;;;1.40;1.00;;;;;;;2.96;80.11;96849.70;104965;1271;61406;-22
2022/02/18 01:07:31;;;;;;;2.20;1.10;;;;;;;3.22;78.84;96857.41;104971;1271;75451;-22
2022/02/18 01:09:57;;;;;;;2.10;0.80;;;;;;;3.36;77.64;96863.28;104953;1271;74389;-23
2022/02/18 01:12:24;;;;;;;1.70;0.80;;;;;;;3.40;76.64;96859.45;105271;1271;74468;-23
2022/02/18 01:14:51;;;;;;;3.30;1.30;;;;;;;3.26;76.68;96868.91;104852;1270;61115;-23
2022/02/18 01:17:20;;;;;;;1.30;1.00;;;;;;;3.09;76.23;96849.23;105247;1271;61035;-23
2022/02/18 01:19:48;;;;;;;1.70;1.00;;;;;;;2.98;76.59;96866.98;105264;1271;74512;-23
2022/02/18 01:22:15;;;;;;;1.90;1.00;;;;;;;3.17;76.08;96877.03;105146;1271;75887;-22
2022/02/18 01:24:43;;;;;;;2.60;0.80;;;;;;;3.44;74.79;96886.63;104968;1271;71992;-22
2022/02/18 01:27:10;;;;;;;1.80;0.90;;;;;;;3.41;74.19;96883.23;105309;1271;61131;-22
2022/02/18 01:29:39;;;;;;;2.90;1.00;;;;;;;3.22;74.95;96880.42;105398;1271;61845;-22
2022/02/18 01:32:11;;;;;;;1.30;0.80;;;;;;;3.00;75.07;96882.59;105445;1271;75547;-22
2022/02/18 01:34:39;;;;;;;0.70;0.70;;;;;;;2.89;75.43;96881.85;104930;1271;76446;-22
2022/02/18 01:37:07;;;;;;;1.50;0.90;;;;;;;3.06;75.02;96892.08;105248;1271;74398;-22
2022/02/18 01:39:35;;;;;;;2.10;1.00;;;;;;;3.43;73.83;96901.92;105400;1271;61008;-22
2022/02/18 01:42:02;;;;;;;1.90;0.70;;;;;;;3.44;73.95;96903.91;104912;1271;61106;-22
2022/02/18 01:44:40;;;;;;;2.10;1.00;;;;;;;3.23;74.86;96904.02;105009;1271;73352;-22
2022/02/18 01:47:19;;;;;;;1.20;0.90;;;;;;;2.98;75.80;96910.02;105128;1272;75951;-22
2022/02/18 01:49:48;;;;;;;1.90;0.90;;;;;;;2.80;76.25;96907.23;105130;1271;74284;-22
2022/02/18 01:52:16;;;;;;;2.30;1.30;;;;;;;2.77;76.59;96913.52;105174;1272;61240;-23
2022/02/18 01:54:44;;;;;;;2.00;1.20;;;;;;;3.05;75.20;96924.51;105176;1272;61870;-23
2022/02/18 01:57:13;;;;;;;3.40;1.40;;;;;;;3.11;74.70;96923.66;105366;1270;75580;-23
2022/02/18 01:59:40;;;;;;;2.00;1.20;;;;;;;2.85;75.34;96930.63;105156;1271;74897;-23
2022/02/18 02:02:07;;;;;;;2.60;1.10;;;;;;;2.46;76.61;96934.54;105195;1271;72980;-23
2022/02/18 02:04:35;;;;;;;3.60;1.40;;;;;;;2.38;76.82;96945.27;105261;1271;61240;-23
2022/02/18 02:07:05;;;;;;;1.50;1.00;;;;;;;2.35;77.19;96955.98;105346;1271;61251;-23
2022/02/18 02:09:35;;;;;;;1.10;1.00;;;;;;;2.84;75.86;96964.66;105124;1271;75523;-23
2022/02/18 02:12:03;;;;;;;2.60;0.90;;;;;;;3.01;75.03;96972.34;105404;1271;75910;-23
2022/02/18 02:14:35;;;;;;;1.30;1.00;;;;;;;2.82;75.62;96976.84;105148;1272;74479;-23
2022/02/18 02:17:03;;;;;;;1.80;0.80;;;;;;;2.71;75.86;96981.66;105143;1271;61076;-23
2022/02/18 02:19:30;;;;;;;1.30;1.20;;;;;;;2.58;76.45;96990.42;105242;1271;61180;-24
2022/02/18 02:21:58;;;;;;;1.70;0.90;;;;;;;2.43;76.65;96990.80;105382;1271;74831;-23
2022/02/18 02:24:25;;;;;;;1.80;1.00;;;;;;;2.64;76.53;97001.25;105245;1271;76037;-23
2022/02/18 02:26:52;;;;;;;1.60;1.10;;;;;;;2.95;74.89;97003.71;105266;1270;74333;-23
2022/02/18 02:29:20;;;;;;;4.30;1.00;;;;;;;2.88;74.90;97008.92;105379;1271;62067;-23
2022/02/18 02:31:48;;;;;;;1.00;0.70;;;;;;;2.82;74.93;97012.23;105396;1270;62297;-23
2022/02/18 02:34:15;;;;;;;8.50;1.50;;;;;;;2.61;75.32;97014.85;105352;1271;75548;-23
2022/02/18 02:36:43;;;;;;;2.10;1.20;;;;;;;2.43;76.03;97017.86;105241;1269;75445;-23
2022/02/18 02:39:10;;;;;;;1.30;0.70;;;;;;;2.18;76.04;97020.50;105240;1271;74386;-23
2022/02/18 02:41:38;;;;;;;4.00;1.40;;;;;;;2.47;75.05;97026.77;105434;1271;61248;-23
2022/02/18 02:44:06;;;;;;;1.40;1.00;;;;;;;2.55;74.04;97041.38;105318;1271;61193;-23
2022/02/18 02:46:37;;;;;;;1.10;0.90;;;;;;;2.65;73.33;97054.59;105119;1269;75413;-22
2022/02/18 02:49:17;;;;;;;2.90;1.20;;;;;;;2.39;73.99;97060.30;105169;1271;75836;-23
2022/02/18 02:51:46;;;;;;;2.20;1.30;;;;;;;2.12;74.84;97064.97;105408;1270;72987;-24
2022/02/18 02:54:13;;;;;;;3.40;1.30;;;;;;;2.09;75.13;97074.94;105152;1271;61454;-26
2022/02/18 02:56:41;;;;;;;1.60;0.80;;;;;;;1.88;75.83;97083.89;105039;1270;61207;-24
2022/02/18 02:59:11;;;;;;;1.30;0.60;;;;;;;2.26;74.61;97081.01;104887;1271;75518;-24
2022/02/18 03:01:43;;;;;;;1.30;1.00;;;;;;;2.55;73.12;97094.46;104927;1271;76372;-24
2022/02/18 03:04:09;;;;;;;1.00;0.90;;;;;;;2.45;73.12;97091.84;104967;1271;74507;-24
2022/02/18 03:06:37;;;;;;;3.30;1.20;;;;;;;2.23;73.90;97094.05;105066;1271;61992;-26
2022/02/18 03:09:08;;;;;;;2.20;0.80;;;;;;;2.11;74.35;97097.73;105053;1271;61009;-26
2022/02/18 03:11:46;;;;;;;2.40;1.30;;;;;;;1.97;74.86;97106.69;105155;1271;75273;-24
2022/02/18 03:14:32;;;;;;;1.20;0.70;;;;;;;1.73;75.18;97104.94;105368;1270;74879;-25
2022/02/18 03:17:03;;;;;;;2.30;1.10;;;;;;;1.93;74.60;97107.86;105367;1271;73303;-25
2022/02/18 03:19:31;;;;;;;2.40;1.00;;;;;;;2.18;73.18;97108.27;105205;1271;61082;-25
2022/02/18 03:21:59;;;;;;;3.70;1.30;;;;;;;2.24;72.24;97115.58;105393;1271;61867;-24
2022/02/18 03:24:26;;;;;;;1.70;0.60;;;;;;;1.99;72.92;97120.35;105289;1271;74473;-24
2022/02/18 03:26:54;;;;;;;3.30;1.10;;;;;;;1.92;73.04;97122.66;105343;1271;76779;-24
2022/02/18 03:29:25;;;;;;;2.50;1.40;;;;;;;1.79;73.55;97134.20;105119;1271;74597;-25
2022/02/18 03:32:00;;;;;;;1.70;0.70;;;;;;;1.69;73.92;97140.77;105019;1271;60970;-24
2022/02/18 03:34:29;;;;;;;2.50;0.90;;;;;;;1.54;74.35;97139.53;104835;1271;60950;-25
2022/02/18 03:36:57;;;;;;;1.50;0.80;;;;;;;1.92;73.31;97149.35;105342;1271;75554;-26
2022/02/18 03:39:27;;;;;;;1.80;0.80;;;;;;;2.27;71.74;97151.85;105184;1271;75979;-27
2022/02/18 03:41:55;;;;;;;1.50;0.70;;;;;;;2.23;71.83;97154.49;105420;1271;74362;-27
2022/02/18 03:44:23;;;;;;;2.40;1.00;;;;;;;2.04;72.60;97168.10;105389;1271;61067;-24
2022/02/18 03:47:10;;;;;;;2.10;0.70;;;;;;;1.86;73.09;97160.23;105314;1271;62382;-25
2022/02/18 03:49:38;;;;;;;1.50;0.60;;;;;;;1.79;73.33;97161.95;105380;1271;74480;-24
2022/02/18 03:52:07;;;;;;;2.50;1.00;;;;;;;1.68;73.97;97169.99;105454;1271;74549;-24
2022/02/18 03:54:34;;;;;;;2.30;1.00;;;;;;;1.82;73.91;97171.79;105392;1271;72423;-24
2022/02/18 03:57:03;;;;;;;1.30;0.60;;;;;;;2.29;72.23;97177.64;105396;1271;61124;-23
2022/02/18 03:59:30;;;;;;;2.20;1.10;;;;;;;2.58;70.80;97181.45;105329;1270;62250;-23
2022/02/18 04:01:59;;;;;;;1.60;0.50;;;;;;;2.37;71.45;97185.14;104996;1271;74804;-23
2022/02/18 04:04:26;;;;;;;1.40;0.70;;;;;;;2.30;71.86;97193.71;105137;1271;75977;-23
2022/02/18 04:07:00;;;;;;;2.20;1.20;;;;;;;2.17;72.55;97196.02;105368;1271;74112;-23
2022/02/18 04:09:40;;;;;;;5.30;0.90;;;;;;;2.06;73.41;97202.34;105150;1271;60994;-23
2022/02/18 04:12:16;;;;;;;1.20;0.80;;;;;;;1.93;74.17;97207.41;105114;1271;61079;-23
2022/02/18 04:14:43;;;;;;;3.30;0.80;;;;;;;2.26;73.53;97208.05;105277;1271;75483;-23
2022/02/18 04:17:12;;;;;;;3.50;1.10;;;;;;;2.55;72.31;97200.55;105442;1271;75827;-23
2022/02/18 04:19:42;;;;;;;3.90;1.00;;;;;;;2.47;72.82;97202.86;105377;1271;74346;-23
2022/02/18 04:22:38;;;;;;;3.90;1.10;;;;;;;2.40;73.76;97204.59;105383;1271;61215;-23
2022/02/18 04:25:07;;;;;;;1.20;0.80;;;;;;;2.18;74.56;97202.34;105290;1271;61433;-23
2022/02/18 04:27:34;;;;;;;3.60;1.20;;;;;;;2.09;75.46;97213.09;105210;1271;75354;-23
2022/02/18 04:30:03;;;;;;;1.60;1.10;;;;;;;1.92;76.62;97206.88;105267;1271;75356;-23
2022/02/18 04:32:30;;;;;;;3.70;1.10;;;;;;;2.32;76.68;97215.85;105049;1271;74273;-23
2022/02/18 04:34:58;;;;;;;2.80;1.40;;;;;;;2.50;76.65;97206.04;105020;1271;61072;-23
2022/02/18 04:37:25;;;;;;;3.60;1.60;;;;;;;2.26;78.11;97214.55;105059;1271;61487;-23
2022/02/18 04:39:52;;;;;;;2.20;1.10;;;;;;;2.06;79.37;97221.37;105171;1271;75458;-23
2022/02/18 04:42:20;;;;;;;2.70;1.50;;;;;;;1.80;80.51;97217.83;105321;1269;75202;-23
2022/02/18 04:44:47;;;;;;;2.90;1.20;;;;;;;1.88;80.39;97223.05;105426;1271;74525;-23
2022/02/18 04:47:14;;;;;;;3.90;1.50;;;;;;;2.26;78.84;97221.58;105340;1271;61163;-23
2022/02/18 04:49:45;;;;;;;2.00;1.20;;;;;;;2.34;78.01;97225.23;105056;1271;61165;-23
2022/02/18 04:52:14;;;;;;;2.90;1.50;;;;;;;2.25;78.22;97228.87;105209;1271;75597;-23
2022/02/18 04:54:42;;;;;;;3.20;1.30;;;;;;;2.06;79.17;97233.52;105285;1271;76123;-23
2022/02/18 04:57:09;;;;;;;3.10;1.20;;;;;;;1.94;79.53;97238.86;105190;1271;74198;-23
2022/02/18 04:59:37;;;;;;;2.50;1.00;;;;;;;1.87;79.76;97242.61;105346;1271;62456;-23
2022/02/18 05:02:04;;;;;;;3.60;1.40;;;;;;;2.19;78.58;97245.02;105362;1271;60999;-23
2022/02/18 05:04:31;;;;;;;1.10;1.00;;;;;;;2.41;77.30;97245.97;105360;1271;75557;-22
2022/02/18 05:06:59;;;;;;;4.40;1.70;;;;;;;2.39;77.27;97255.34;105271;1271;75975;-23
2022/02/18 05:09:26;;;;;;;3.80;1.30;;;;;;;2.16;77.79;97261.70;105341;1271;74434;-23
2022/02/18 05:11:53;;;;;;;2.70;1.40;;;;;;;2.04;78.33;97267.88;105383;1272;61060;-22
2022/02/18 05:14:21;;;;;;;2.10;0.70;;;;;;;1.78;79.14;97261.09;105360;1271;61023;-23
2022/02/18 05:16:48;;;;;;;3.40;1.50;;;;;;;2.00;78.64;97276.23;105363;1270;75375;-23
2022/02/18 05:19:15;;;;;;;2.60;1.50;;;;;;;2.28;77.50;97284.25;105303;1271;75966;-23
2022/02/18 05:21:44;;;;;;;1.70;1.00;;;;;;;2.51;76.63;97284.79;105377;1270;74151;-23
2022/02/18 05:24:11;;;;;;;2.80;1.40;;;;;;;2.35;77.22;97290.09;105391;1271;62189;-23
2022/02/18 05:26:43;;;;;;;3.00;1.10;;;;;;;2.06;78.53;97298.39;105114;1271;61018;-23
2022/02/18 05:29:10;;;;;;;2.00;1.10;;;;;;;1.93;79.01;97299.89;105390;1271;74499;-23
2022/02/18 05:31:38;;;;;;;2.00;0.90;;;;;;;1.90;79.87;97301.13;104966;1271;74492;-23
2022/02/18 05:34:06;;;;;;;3.40;1.20;;;;;;;2.31;78.20;97303.73;105290;1271;74361;-24
2022/02/18 05:36:33;;;;;;;1.80;1.10;;;;;;;2.64;77.11;97308.11;105346;1271;61127;-23
2022/02/18 05:39:00;;;;;;;2.20;0.90;;;;;;;2.55;77.26;97310.48;105417;1271;61003;-23
2022/02/18 05:41:28;;;;;;;1.80;1.40;;;;;;;2.53;77.47;97315.25;105420;1272;73876;-23
2022/02/18 05:43:56;;;;;;;4.00;1.60;;;;;;;2.44;77.71;97315.29;105364;1272;75745;-24
2022/02/18 05:46:24;;;;;;;3.40;1.40;;;;;;;2.22;79.06;97314.02;105273;1271;74522;-23
2022/02/18 05:48:52;;;;;;;2.40;1.20;;;;;;;2.59;78.31;97323.74;105358;1269;61090;-23
2022/02/18 05:51:19;;;;;;;2.30;1.10;;;;;;;2.97;76.61;97325.83;105367;1271;61103;-23
2022/02/18 05:53:46;;;;;;;2.60;1.00;;;;;;;2.99;76.36;97329.10;105358;1271;75557;-23
2022/02/18 05:56:13;;;;;;;2.40;1.40;;;;;;;2.83;76.96;97327.05;105213;1271;75945;-23
2022/02/18 05:58:43;;;;;;;2.90;1.60;;;;;;;2.64;77.78;97335.70;105101;1270;72542;-25
2022/02/18 06:01:10;;;;;;;4.10;1.70;;;;;;;2.51;78.73;97337.68;104938;1271;62593;-24
2022/02/18 06:03:37;;;;;;;1.60;1.10;;;;;;;2.94;77.31;97340.98;104979;1271;61114;-23
2022/02/18 06:06:04;;;;;;;3.90;1.80;;;;;;;3.17;76.44;97342.11;105044;1271;73323;-23
2022/02/18 06:08:33;;;;;;;3.40;1.30;;;;;;;3.15;76.39;97349.59;105079;1271;75942;-23
2022/02/18 06:11:00;;;;;;;1.00;0.90;;;;;;;3.07;76.53;97354.14;105055;1271;74319;-23
2022/02/18 06:13:29;;;;;;;1.60;1.10;;;;;;;2.76;78.12;97358.91;105269;1270;61130;-24
2022/02/18 06:15:56;;;;;;;1.30;0.80;;;;;;;2.64;78.93;97368.43;105403;1271;61045;-22
2022/02/18 06:18:25;;;;;;;2.20;1.30;;;;;;;2.98;77.94;97371.69;105438;1271;75262;-22
2022/02/18 06:20:52;;;;;;;3.30;1.10;;;;;;;3.25;76.55;97361.69;105296;1271;75918;-24
2022/02/18 06:23:19;;;;;;;1.90;1.50;;;;;;;3.24;76.53;97364.89;105331;1271;73269;-25
2022/02/18 06:25:46;;;;;;;4.00;1.30;;;;;;;3.14;77.11;97380.36;105277;1271;62283;-22
2022/02/18 06:28:13;;;;;;;1.70;1.40;;;;;;;2.98;78.12;97378.16;105054;1271;60946;-23
2022/02/18 06:30:41;;;;;;;2.20;1.50;;;;;;;2.81;78.89;97378.13;105083;1272;75391;-23
2022/02/18 06:33:09;;;;;;;3.00;1.00;;;;;;;2.97;78.54;97376.68;104821;1271;74515;-23
2022/02/18 06:35:39;;;;;;;1.90;1.50;;;;;;;3.34;76.46;97375.09;105045;1271;74392;-24
2022/02/18 06:38:07;;;;;;;2.00;1.30;;;;;;;3.15;76.90;97371.23;105059;1271;62047;-23
2022/02/18 06:40:35;;;;;;;2.40;1.30;;;;;;;3.13;77.07;97380.95;105393;1271;61029;-22
2022/02/18 06:43:02;;;;;;;2.10;1.50;;;;;;;2.88;78.16;97389.11;105144;1271;75585;-22
2022/02/18 06:45:29;;;;;;;1.20;1.00;;;;;;;2.78;78.44;97386.27;105248;1269;73775;-22
2022/02/18 06:47:56;;;;;;;1.40;1.00;;;;;;;2.90;78.30;97396.77;105201;1271;74978;-22
2022/02/18 06:50:23;;;;;;;2.00;1.30;;;;;;;3.26;76.65;97388.74;105344;1271;61136;-22
2022/02/18 06:52:50;;;;;;;1.90;1.30;;;;;;;3.20;76.99;97405.46;105268;1271;61988;-22
2022/02/18 06:55:20;;;;;;;1.40;1.10;;;;;;;3.10;77.32;97411.02;105064;1271;74356;-22
2022/02/18 06:57:48;;;;;;;1.80;1.40;;;;;;;2.89;78.06;97403.92;105060;1271;76069;-23
2022/02/18 07:00:17;;;;;;;1.70;1.10;;;;;;;2.89;78.58;97408.54;105361;1271;74147;-23
2022/02/18 07:02:44;;;;;;;3.00;1.20;;;;;;;3.18;77.16;97401.88;105122;1271;61058;-23
2022/02/18 07:05:13;;;;;;;2.20;1.10;;;;;;;3.36;77.31;97420.38;105251;1271;61962;-23
2022/02/18 07:07:42;;;;;;;3.20;1.60;;;;;;;3.40;77.39;97421.09;105179;1271;75390;-23
2022/02/18 07:10:11;;;;;;;2.40;1.20;;;;;;;3.18;78.57;97433.23;105339;1271;75972;-23
2022/02/18 07:12:38;;;;;;;2.40;1.60;;;;;;;2.98;78.98;97426.36;105170;1271;72304;-23
2022/02/18 07:15:06;;;;;;;1.70;1.10;;;;;;;3.02;78.86;97427.95;105174;1274;61767;-22
2022/02/18 07:17:35;;;;;;;2.10;1.30;;;;;;;3.47;77.16;97430.89;105168;1272;61079;-23
2022/02/18 07:20:03;;;;;;;1.60;1.00;;;;;;;3.52;76.36;97431.71;105055;1271;75316;-23
2022/02/18 07:22:30;;;;;;;5.70;0.90;;;;;;;3.37;76.63;97424.61;104959;1271;75178;-23
2022/02/18 07:24:57;;;;;;;2.10;1.20;;;;;;;3.45;76.62;97442.02;105153;1271;74340;-22
2022/02/18 07:27:24;;;;;;;2.30;1.10;;;;;;;3.24;77.47;97434.70;105371;1271;61140;-23
2022/02/18 07:29:51;;;;;;;2.10;1.30;;;;;;;3.30;76.94;97434.55;105400;1271;61155;-23
2022/02/18 07:32:20;;;;;;;2.00;1.10;;;;;;;3.66;76.10;97447.56;105349;1272;74662;-22
2022/02/18 07:34:47;;;;;;;2.70;1.30;;;;;;;3.89;75.12;97455.08;104989;1271;74627;-23
2022/02/18 07:37:14;;;;;;;2.90;1.30;;;;;;;3.76;75.30;97446.30;104993;1269;74366;-22
2022/02/18 07:39:42;;;;;;;3.50;1.40;;;;;;;3.48;75.46;97441.20;105028;1271;61124;-22
2022/02/18 07:42:09;;;;;;;1.80;1.00;;;;;;;3.52;76.11;97460.87;104774;1272;61243;-23
2022/02/18 07:44:36;;;;;;;1.30;0.80;;;;;;;3.33;76.43;97465.70;104991;1271;74282;-24
2022/02/18 07:47:04;;;;;;;2.30;1.00;;;;;;;3.76;74.96;97466.36;105120;1271;75951;-25
2022/02/18 07:49:48;;;;;;;1.40;0.80;;;;;;;4.00;73.79;97454.38;105051;1271;74575;-23
2022/02/18 07:52:15;;;;;;;1.40;0.90;;;;;;;4.05;73.90;97473.51;105016;1271;61141;-25
2022/02/18 07:54:44;;;;;;;1.90;1.00;;;;;;;3.76;74.21;97464.27;105190;1271;61996;-27
2022/02/18 07:57:11;;;;;;;1.90;0.90;;;;;;;3.74;74.97;97476.67;105330;1271;75509;-25
2022/02/18 07:59:38;;;;;;;3.50;1.00;;;;;;;3.70;74.69;97465.65;105303;1271;75795;-25
2022/02/18 08:02:05;;;;;;;2.60;1.20;;;;;;;3.75;74.67;97474.84;105387;1270;72637;-23
2022/02/18 08:04:32;;;;;;;2.70;1.10;;;;;;;4.08;73.08;97460.22;105316;1271;61009;-23
2022/02/18 08:07:06;;;;;;;1.70;1.20;;;;;;;4.08;72.67;97475.18;105370;1271;61078;-23
2022/02/18 08:09:35;;;;;;;3.90;1.20;;;;;;;4.03;73.08;97476.06;105375;1271;75684;-22
2022/02/18 08:12:03;;;;;;;3.70;1.30;;;;;;;3.78;73.98;97476.52;105353;1271;76143;-24
2022/02/18 08:14:33;;;;;;;1.40;1.20;;;;;;;3.61;74.30;97481.93;105342;1271;74476;-23
2022/02/18 08:17:00;;;;;;;3.70;1.50;;;;;;;3.66;74.31;97479.16;105407;1271;61128;-23
2022/02/18 08:19:28;;;;;;;3.50;0.90;;;;;;;3.87;73.27;97468.23;105345;1271;61258;-24
2022/02/18 08:21:56;;;;;;;2.00;1.00;;;;;;;4.21;71.75;97487.57;105417;1270;77172;-23
2022/02/18 08:24:23;;;;;;;1.90;0.90;;;;;;;4.34;72.25;97496.11;105296;1271;76456;-25
2022/02/18 08:26:51;;;;;;;1.60;1.10;;;;;;;4.41;72.31;97497.84;105343;1271;74615;-22
2022/02/18 08:29:20;;;;;;;2.40;1.10;;;;;;;4.24;71.04;97493.33;105172;1271;61915;-22
2022/02/18 08:31:48;;;;;;;2.90;1.40;;;;;;;4.17;71.83;97511.91;105161;1271;62051;-22
2022/02/18 08:34:15;;;;;;;2.00;1.00;;;;;;;4.07;72.16;97510.98;105159;1271;75543;-23
2022/02/18 08:36:43;;;;;;;1.90;1.00;;;;;;;3.98;72.49;97501.75;105274;1271;75841;-22
2022/02/18 08:39:10;;;;;;;1.70;0.90;;;;;;;4.18;72.42;97515.63;105091;1271;74355;-22
2022/02/18 08:41:38;;;;;;;3.40;1.30;;;;;;;4.49;70.20;97519.34;105213;1271;61070;-22
2022/02/18 08:44:05;;;;;;;1.50;1.00;;;;;;;4.39;70.81;97515.69;105009;1270;61060;-22
2022/02/18 08:46:33;;;;;;;2.10;0.90;;;;;;;4.27;71.10;97527.96;105122;1271;74419;-23
2022/02/18 08:49:00;;;;;;;2.20;1.10;;;;;;;4.29;71.38;97533.46;105224;1271;75937;-22
2022/02/18 08:51:27;;;;;;;2.10;1.30;;;;;;;4.20;71.40;97538.98;105332;1271;74463;-22
2022/02/18 08:53:54;;;;;;;2.60;1.30;;;;;;;3.93;70.93;97514.52;105367;1271;61107;-22
2022/02/18 08:56:21;;;;;;;2.60;1.40;;;;;;;3.94;71.29;97530.05;105426;1270;61003;-22
2022/02/18 08:58:50;;;;;;;1.40;1.00;;;;;;;4.06;71.14;97523.73;105397;1271;75277;-22
2022/02/18 09:01:17;;;;;;;2.00;1.20;;;;;;;4.47;71.20;97544.46;105387;1271;73704;-22
2022/02/18 09:03:45;;;;;;;1.40;0.80;;;;;;;4.72;70.42;97543.48;105222;1270;74448;-22
2022/02/18 09:06:12;;;;;;;4.40;1.00;;;;;;;4.74;70.44;97542.73;105190;1271;61124;-22
2022/02/18 09:08:42;;;;;;;2.00;1.20;;;;;;;4.74;70.01;97546.91;105329;1271;61034;-25
2022/02/18 09:11:09;;;;;;;2.50;1.20;;;;;;;4.67;71.12;97548.20;105294;1271;75569;-23
2022/02/18 09:13:37;;;;;;;3.20;1.60;;;;;;;4.69;71.56;97560.19;105319;1270;74879;-23
2022/02/18 09:16:04;;;;;;;4.40;1.50;;;;;;;4.55;71.01;97539.34;105361;1271;74152;-26
2022/02/18 09:18:44;;;;;;;2.60;1.20;;;;;;;4.21;73.06;97560.19;105294;1271;61148;-23
2022/02/18 09:21:11;;;;;;;4.70;1.90;;;;;;;4.15;72.28;97550.20;105404;1271;61119;-23
2022/02/18 09:23:59;;;;;;;3.50;1.40;;;;;;;4.55;71.65;97568.15;105306;1271;75565;-22
2022/02/18 09:26:26;;;;;;;2.10;1.40;;;;;;;4.97;69.53;97564.32;105052;1271;75752;-23
2022/02/18 09:28:56;;;;;;;3.90;1.30;;;;;;;5.11;69.38;97575.16;105063;1271;74370;-22
2022/02/18 09:31:24;;;;;;;2.20;1.10;;;;;;;4.70;69.81;97560.66;105310;1271;62318;-22
2022/02/18 09:33:51;;;;;;;4.10;1.30;;;;;;;4.50;70.63;97578.23;105147;1271;61088;-22
2022/02/18 09:36:19;;;;;;;1.70;1.10;;;;;;;4.34;71.95;97586.00;105440;1271;75066;-23
2022/02/18 09:38:47;;;;;;;6.00;1.70;;;;;;;4.13;72.90;97595.39;105336;1271;76016;-23
2022/02/18 09:41:14;;;;;;;1.90;0.90;;;;;;;3.97;74.02;97599.16;105398;1271;74358;-23
2022/02/18 09:43:41;;;;;;;1.20;0.90;;;;;;;4.26;73.01;97603.98;105029;1271;61054;-22
2022/02/18 09:46:08;;;;;;;2.00;0.80;;;;;;;4.55;72.30;97610.47;105382;1271;61895;-22
2022/02/18 09:48:38;;;;;;;1.40;0.80;;;;;;;4.21;73.99;97584.96;105159;1271;240333;-23
2022/02/18 09:51:07;;;;;;;3.10;0.90;;;;;;;3.96;75.37;97609.68;105381;1271;73204;-22
2022/02/18 09:53:35;;;;;;;2.30;1.10;;;;;;;3.56;77.04;97612.61;105274;1270;74454;-21
2022/02/18 09:56:03;;;;;;;3.00;1.40;;;;;;;3.54;78.41;97623.73;105203;1271;60997;-24
2022/02/18 09:58:31;;;;;;;2.60;1.40;;;;;;;3.75;78.70;97629.16;105009;1271;60949;-25
2022/02/18 10:00:59;;;;;;;4.20;1.00;;;;;;;4.11;77.40;97620.25;105160;1271;75379;-23
2022/02/18 10:03:26;;;;;;;0.90;0.80;;;;;;;4.03;77.17;97614.16;104968;1271;74542;-23
2022/02/18 10:05:53;;;;;;;2.20;1.10;;;;;;;4.00;76.84;97636.52;105100;1271;72895;-23
2022/02/18 10:08:22;;;;;;;2.50;0.90;;;;;;;3.69;77.62;97632.05;105351;1271;61114;-23
2022/02/18 10:11:01;;;;;;;2.90;1.10;;;;;;;3.55;78.93;97648.30;105173;1271;61031;-24
2022/02/18 10:13:34;;;;;;;3.10;0.70;;;;;;;3.60;79.10;97642.63;105045;1271;75359;-23
2022/02/18 10:16:22;;;;;;;3.10;0.90;;;;;;;4.05;77.58;97647.34;105178;1271;76365;-23
2022/02/18 10:18:53;;;;;;;4.30;0.80;;;;;;;4.42;75.49;97646.73;105133;1272;74666;-25
2022/02/18 10:21:35;;;;;;;4.80;1.20;;;;;;;4.44;74.92;97645.17;105139;1271;61090;-23
2022/02/18 10:24:16;;;;;;;2.10;0.90;;;;;;;4.18;75.53;97640.11;105143;1271;61191;-23
2022/02/18 10:26:49;;;;;;;1.80;0.90;;;;;;;4.20;75.79;97648.39;105044;1271;75623;-23
2022/02/18 10:29:33;;;;;;;2.50;1.10;;;;;;;4.11;75.12;97637.91;105166;1271;75168;-23
2022/02/18 10:32:10;;;;;;;4.10;0.90;;;;;;;4.45;73.50;97641.48;105190;1271;74486;-23
2022/02/18 10:35:01;;;;;;;3.00;1.00;;;;;;;4.73;72.28;97640.02;105169;1271;61146;-23
2022/02/18 10:37:30;;;;;;;1.70;0.70;;;;;;;4.59;72.14;97632.16;105129;1271;62753;-22
2022/02/18 10:40:11;;;;;;;1.60;0.90;;;;;;;4.52;72.44;97632.39;105202;1271;75570;-23
2022/02/18 10:42:43;;;;;;;2.90;1.40;;;;;;;4.42;72.57;97653.92;105147;1271;75846;-24
2022/02/18 10:45:15;;;;;;;5.00;1.20;;;;;;;4.21;72.61;97643.56;105217;1271;74306;-22
2022/02/18 10:47:44;;;;;;;3.70;1.60;;;;;;;4.17;72.81;97649.86;105123;1271;61130;-24
2022/02/18 10:50:15;;;;;;;2.50;1.30;;;;;;;4.17;73.22;97663.41;105367;1271;60979;-23
2022/02/18 10:52:42;;;;;;;4.90;1.10;;;;;;;4.79;72.21;97674.09;105186;1270;74495;-22
2022/02/18 10:55:09;;;;;;;6.20;1.20;;;;;;;4.84;70.60;97665.56;105360;1271;75897;-24
2022/02/18 10:57:37;;;;;;;4.50;1.10;;;;;;;4.72;71.63;97682.38;105362;1271;71319;-22
2022/02/18 11:00:13;;;;;;;5.80;1.50;;;;;;;4.77;70.82;97667.85;105432;1271;61027;-22
2022/02/18 11:02:50;;;;;;;2.90;1.10;;;;;;;4.63;71.05;97683.72;105185;1271;61376;-22
2022/02/18 11:05:23;;;;;;;4.90;1.50;;;;;;;4.40;71.57;97678.19;105153;1271;75482;-22
2022/02/18 11:07:56;;;;;;;1.90;1.10;;;;;;;4.33;71.56;97668.94;105221;1271;75809;-22
2022/02/18 11:10:39;;;;;;;2.60;1.40;;;;;;;4.42;71.67;97684.48;105083;1270;74578;-23
2022/02/18 11:14:53;;;;;;;4.70;1.20;;;;;;;4.47;71.15;97693.08;101721;1310;601120;-23
2022/02/18 11:17:23;;;;;;;2.00;1.10;;;;;;;4.33;71.78;97684.70;103863;1287;61167;-23
2022/02/18 11:19:51;;;;;;;1.30;0.80;;;;;;;4.13;72.60;97708.02;104077;1284;62530;-23
2022/02/18 11:22:20;;;;;;;1.60;0.90;;;;;;;4.23;72.27;97699.03;104258;1285;74300;-23
2022/02/18 11:24:49;;;;;;;1.40;0.60;;;;;;;4.08;72.88;97709.80;104235;1284;74787;-23
2022/02/18 11:27:17;;;;;;;0.70;0.40;;;;;;;3.77;73.85;97702.96;103818;1288;73372;-23
2022/02/18 11:29:45;;;;;;;1.10;0.40;;;;;;;3.89;74.15;97712.59;104128;1284;61425;-22
2022/02/18 11:32:23;;;;;;;1.90;0.60;;;;;;;3.84;74.80;97722.41;104431;1284;62263;-22
2022/02/18 11:35:42;;;;;;;0.80;0.50;;;;;;;3.76;74.92;97731.55;104025;1284;73239;-22
2022/02/18 11:38:50;;;;;;;1.40;0.80;;;;;;;3.52;75.45;97726.17;105157;1271;75910;-23
2022/02/18 11:41:47;;;;;;;1.90;0.80;;;;;;;3.54;76.20;97739.05;104478;1279;74737;-24
2022/02/18 11:44:17;;;;;;;0.60;0.60;;;;;;;3.84;75.82;97745.91;104568;1281;62034;-22
2022/02/18 11:46:46;;;;;;;2.00;0.80;;;;;;;4.33;74.22;97742.77;104495;1280;62076;-22